Time;durP1;ratioP1;P1;durP2;ratioP2;P2;SDS_P1;SDS_P2;PMS_P1;PMS_P2;Temp;Humidity;BMP_temperature;BMP_pressure;BME280_temperature;BME280_humidity;BME280_pressure;Samples;Min_cycle;Max_cycle;Signal;HPM_P1;HPM_P2
2023/03/29 00:00:49;;;;;;;4.07;2.90;;;6.70;99.90;;;;;;5050727;28;20643;-78
2023/03/29 00:03:15;;;;;;;4.67;2.90;;;6.70;99.90;;;;;;5050587;28;20192;-78
2023/03/29 00:05:41;;;;;;;3.73;2.90;;;6.80;99.90;;;;;;5051285;28;20185;-78
2023/03/29 00:08:07;;;;;;;3.80;3.40;;;6.70;99.90;;;;;;5050299;28;20432;-78
2023/03/29 00:10:33;;;;;;;3.50;2.83;;;6.70;99.90;;;;;;5050309;28;20272;-78
2023/03/29 00:13:00;;;;;;;3.83;3.30;;;6.80;99.90;;;;;;5050391;28;20518;-77
2023/03/29 00:15:26;;;;;;;4.07;2.93;;;6.90;99.90;;;;;;5050232;28;20432;-78
2023/03/29 00:17:51;;;;;;;3.97;3.10;;;6.80;99.90;;;;;;5049000;28;20428;-78
2023/03/29 00:20:17;;;;;;;3.20;2.73;;;6.70;99.90;;;;;;5051096;28;20200;-78
2023/03/29 00:22:45;;;;;;;3.47;3.10;;;6.60;99.90;;;;;;5066527;28;20286;-78
2023/03/29 00:25:12;;;;;;;4.90;3.30;;;6.60;99.90;;;;;;5050718;28;20206;-78
2023/03/29 00:27:39;;;;;;;3.37;2.80;;;7.00;99.90;;;;;;5050915;28;20497;-78
2023/03/29 00:30:06;;;;;;;5.93;2.90;;;6.70;99.90;;;;;;5049056;28;20467;-77
2023/03/29 00:32:33;;;;;;;5.67;3.00;;;6.80;99.90;;;;;;5049272;28;20413;-78
2023/03/29 00:35:04;;;;;;;3.03;2.63;;;6.80;99.90;;;;;;5034137;28;20800;-77
2023/03/29 00:37:29;;;;;;;4.83;3.20;;;6.90;99.90;;;;;;5054468;28;20417;-78
2023/03/29 00:39:56;;;;;;;3.40;3.10;;;6.90;99.90;;;;;;5064231;28;20423;-78
2023/03/29 00:42:23;;;;;;;4.00;3.00;;;6.70;99.90;;;;;;5073947;28;20176;-78
2023/03/29 00:44:54;;;;;;;5.20;3.03;;;6.90;99.90;;;;;;5072088;28;20474;-78
2023/03/29 00:47:26;;;;;;;3.70;2.80;;;6.90;99.90;;;;;;5072072;28;20809;-78
2023/03/29 00:49:52;;;;;;;4.40;2.90;;;6.90;99.90;;;;;;5073157;28;20465;-78
2023/03/29 00:52:20;;;;;;;3.17;2.60;;;6.90;99.90;;;;;;5058946;28;20412;-77
2023/03/29 00:54:49;;;;;;;3.43;2.77;;;7.10;99.90;;;;;;5052058;28;20428;-78
2023/03/29 00:57:17;;;;;;;3.43;3.10;;;6.90;99.90;;;;;;5053405;28;20415;-78
2023/03/29 00:59:45;;;;;;;4.47;3.07;;;7.00;99.90;;;;;;5053127;28;20474;-78
2023/03/29 01:02:12;;;;;;;3.67;2.97;;;7.00;99.90;;;;;;5035163;28;20427;-78
2023/03/29 01:04:57;;;;;;;3.17;2.73;;;7.00;99.90;;;;;;5052592;28;20537;-78
2023/03/29 01:07:34;;;;;;;6.03;3.00;;;7.20;99.90;;;;;;5053125;28;20409;-78
2023/03/29 01:10:15;;;;;;;3.03;2.73;;;6.90;99.90;;;;;;5038587;28;20456;-78
2023/03/29 01:12:48;;;;;;;3.40;2.77;;;6.90;99.90;;;;;;5063229;28;21245;-78
2023/03/29 01:15:19;;;;;;;4.03;2.50;;;6.90;99.90;;;;;;5063600;28;20479;-78
2023/03/29 01:17:54;;;;;;;6.40;2.90;;;7.00;99.90;;;;;;5059429;28;20424;-78
2023/03/29 01:20:42;;;;;;;3.30;2.50;;;6.90;99.90;;;;;;5060070;28;20416;-78
2023/03/29 01:23:12;;;;;;;4.47;2.87;;;6.90;99.90;;;;;;5055543;28;20455;-78
2023/03/29 01:25:58;;;;;;;4.43;2.80;;;6.90;99.90;;;;;;5053814;28;20937;-78
2023/03/29 01:28:34;;;;;;;3.07;2.77;;;7.00;99.90;;;;;;5052717;28;20447;-78
2023/03/29 01:31:09;;;;;;;3.67;2.97;;;6.90;99.90;;;;;;5035135;28;20450;-78
2023/03/29 01:33:46;;;;;;;3.50;2.60;;;6.90;99.90;;;;;;5052668;28;20990;-78
2023/03/29 01:36:17;;;;;;;3.70;2.63;;;7.10;99.90;;;;;;5035231;28;20495;-78
2023/03/29 01:39:12;;;;;;;3.40;2.60;;;7.00;99.90;;;;;;5051769;28;20408;-78
2023/03/29 01:42:02;;;;;;;3.37;2.63;;;7.00;99.90;;;;;;5067496;28;21155;-78
2023/03/29 01:44:47;;;;;;;3.40;2.23;;;6.80;99.90;;;;;;5071217;28;20468;-78
2023/03/29 01:47:18;;;;;;;2.77;2.27;;;7.10;99.90;;;;;;5071708;28;20411;-78
2023/03/29 01:50:11;;;;;;;3.03;2.40;;;7.20;99.90;;;;;;5054537;28;20987;-77
2023/03/29 01:52:51;;;;;;;4.67;3.00;;;7.00;99.90;;;;;;5056037;28;20797;-78
2023/03/29 01:55:26;;;;;;;3.67;2.30;;;7.00;99.90;;;;;;5051319;28;20428;-78
2023/03/29 01:57:54;;;;;;;4.80;2.63;;;6.80;99.90;;;;;;5051029;28;20921;-77
2023/03/29 02:00:26;;;;;;;4.60;2.40;;;7.00;99.90;;;;;;5050444;28;20416;-77
2023/03/29 02:02:58;;;;;;;3.73;2.67;;;6.90;99.90;;;;;;5050532;28;20408;-77
2023/03/29 02:05:27;;;;;;;3.07;2.67;;;7.10;99.90;;;;;;5051725;28;20439;-78
2023/03/29 02:07:54;;;;;;;5.27;2.60;;;7.10;99.90;;;;;;5052534;28;20413;-77
2023/03/29 02:10:21;;;;;;;4.30;2.57;;;6.80;99.90;;;;;;5052125;28;20463;-78
2023/03/29 02:12:47;;;;;;;5.00;2.63;;;6.90;99.90;;;;;;5052023;28;20440;-78
2023/03/29 02:15:17;;;;;;;3.27;2.97;;;7.10;99.90;;;;;;5051591;28;20450;-78
2023/03/29 02:17:43;;;;;;;3.07;2.50;;;6.90;99.90;;;;;;5051923;28;20561;-78
2023/03/29 02:20:16;;;;;;;3.57;3.03;;;7.10;99.90;;;;;;5051628;28;20511;-78
2023/03/29 02:23:16;;;;;;;4.13;2.60;;;6.90;99.90;;;;;;5051891;28;20182;-77
2023/03/29 02:25:44;;;;;;;5.77;2.43;;;7.00;99.90;;;;;;5051212;28;20423;-78
2023/03/29 02:28:11;;;;;;;2.97;2.67;;;7.10;99.90;;;;;;5033846;28;20413;-78
2023/03/29 02:30:48;;;;;;;3.43;2.53;;;7.00;99.90;;;;;;5051685;28;20494;-78
2023/03/29 02:33:22;;;;;;;4.17;2.73;;;7.00;99.90;;;;;;5052041;28;20415;-78
2023/03/29 02:35:57;;;;;;;4.00;2.50;;;7.10;99.90;;;;;;5050630;28;20968;-78
2023/03/29 02:38:25;;;;;;;2.67;2.17;;;7.10;99.90;;;;;;5051007;28;20772;-78
2023/03/29 02:40:51;;;;;;;4.07;2.90;;;7.10;99.90;;;;;;5069678;28;20419;-78
2023/03/29 02:43:19;;;;;;;2.70;2.43;;;7.30;99.90;;;;;;5070185;28;20411;-78
2023/03/29 02:45:46;;;;;;;3.33;3.00;;;7.10;99.90;;;;;;5072180;28;20557;-78
2023/03/29 02:48:16;;;;;;;4.33;2.40;;;7.30;99.90;;;;;;5072086;28;20446;-78
2023/03/29 02:50:46;;;;;;;2.80;2.50;;;7.20;99.90;;;;;;5069574;28;21471;-78
2023/03/29 02:53:19;;;;;;;3.23;2.77;;;7.30;99.90;;;;;;5051928;28;20470;-77
2023/03/29 02:55:45;;;;;;;2.57;2.37;;;7.20;99.90;;;;;;5050504;28;20411;-78
2023/03/29 02:58:14;;;;;;;3.10;2.20;;;7.20;99.90;;;;;;5051357;28;20451;-78
2023/03/29 03:00:43;;;;;;;2.70;2.40;;;7.20;99.90;;;;;;5051295;28;20416;-78
2023/03/29 03:03:14;;;;;;;5.50;3.33;;;7.30;99.90;;;;;;5051709;28;20465;-78
2023/03/29 03:05:40;;;;;;;3.00;2.33;;;7.10;99.90;;;;;;5051367;28;20435;-77
2023/03/29 03:08:06;;;;;;;3.90;2.70;;;7.30;99.90;;;;;;5051416;28;20508;-77
2023/03/29 03:10:33;;;;;;;4.20;2.30;;;7.00;99.90;;;;;;5051093;28;20533;-78
2023/03/29 03:12:59;;;;;;;5.90;2.50;;;7.40;99.90;;;;;;5051113;28;20435;-78
2023/03/29 03:15:26;;;;;;;4.90;1.97;;;7.30;99.90;;;;;;5051208;28;20455;-78
2023/03/29 03:17:52;;;;;;;3.13;2.70;;;7.30;99.90;;;;;;5050752;28;20507;-78
2023/03/29 03:20:20;;;;;;;2.60;2.07;;;7.50;99.90;;;;;;5033043;28;20462;-78
2023/03/29 03:22:47;;;;;;;4.60;2.70;;;7.50;99.90;;;;;;5050833;28;20853;-78
2023/03/29 03:25:19;;;;;;;5.60;2.10;;;7.60;99.90;;;;;;5049661;28;20789;-78
2023/03/29 03:27:47;;;;;;;2.60;2.40;;;7.40;99.90;;;;;;5050576;28;20417;-78
2023/03/29 03:30:13;;;;;;;2.77;2.00;;;7.40;99.90;;;;;;5051120;28;20720;-78
2023/03/29 03:32:40;;;;;;;4.87;2.40;;;7.40;99.90;;;;;;5050148;28;20405;-78
2023/03/29 03:35:07;;;;;;;4.27;2.13;;;7.30;99.90;;;;;;5032409;28;20511;-78
2023/03/29 03:37:33;;;;;;;3.27;2.43;;;7.50;99.90;;;;;;5050529;28;20405;-78
2023/03/29 03:39:58;;;;;;;3.27;2.07;;;7.50;99.90;;;;;;5059294;28;20958;-78
2023/03/29 03:42:27;;;;;;;3.70;2.43;;;7.30;99.90;;;;;;5069146;28;20420;-78
2023/03/29 03:44:53;;;;;;;2.70;2.33;;;7.50;99.90;;;;;;5069906;28;20560;-78
2023/03/29 03:47:19;;;;;;;3.50;2.40;;;7.40;99.90;;;;;;5070315;28;20411;-78
2023/03/29 03:49:45;;;;;;;2.87;2.57;;;7.40;99.90;;;;;;5070305;28;20681;-78
2023/03/29 03:52:11;;;;;;;4.87;2.50;;;7.60;99.90;;;;;;5057127;28;20181;-78
2023/03/29 03:54:37;;;;;;;2.80;2.50;;;7.60;99.90;;;;;;5050217;28;20515;-78
2023/03/29 03:57:03;;;;;;;3.30;2.40;;;7.40;99.90;;;;;;5049025;28;20420;-78
2023/03/29 03:59:29;;;;;;;2.80;2.10;;;7.50;99.90;;;;;;5050572;28;20756;-79
2023/03/29 04:01:54;;;;;;;2.90;2.43;;;7.60;99.90;;;;;;5049455;28;20178;-78
2023/03/29 04:04:21;;;;;;;3.30;2.47;;;7.50;99.90;;;;;;5049004;28;20197;-78
2023/03/29 04:06:47;;;;;;;2.90;2.47;;;7.50;99.90;;;;;;5049648;28;20177;-78
2023/03/29 04:09:13;;;;;;;2.40;2.20;;;7.50;99.90;;;;;;5050398;28;20513;-78
2023/03/29 04:11:38;;;;;;;3.43;2.70;;;7.50;99.90;;;;;;5054241;28;20519;-78
2023/03/29 04:14:04;;;;;;;2.50;2.30;;;7.50;99.90;;;;;;5052836;28;20202;-78
2023/03/29 04:16:30;;;;;;;6.37;2.53;;;7.60;99.90;;;;;;5036538;28;20542;-78
2023/03/29 04:18:55;;;;;;;3.97;2.87;;;7.60;99.90;;;;;;5053712;28;20181;-78
2023/03/29 04:21:22;;;;;;;2.73;2.40;;;7.70;99.90;;;;;;5036747;28;20189;-78
2023/03/29 04:23:47;;;;;;;3.07;2.60;;;7.60;99.90;;;;;;5054608;28;20647;-78
2023/03/29 04:26:14;;;;;;;4.70;3.10;;;7.70;99.90;;;;;;5054888;28;20480;-78
2023/03/29 04:28:40;;;;;;;3.90;2.63;;;7.60;99.90;;;;;;5052993;28;20174;-78
2023/03/29 04:31:11;;;;;;;2.80;2.60;;;7.60;99.90;;;;;;5053087;28;20408;-78
2023/03/29 04:33:37;;;;;;;3.27;2.40;;;7.70;99.90;;;;;;5054191;28;20435;-78
2023/03/29 04:36:04;;;;;;;4.70;3.10;;;7.50;99.90;;;;;;5051566;28;20501;-78
2023/03/29 04:38:30;;;;;;;4.63;3.13;;;7.60;99.90;;;;;;5054543;28;20440;-78
2023/03/29 04:40:55;;;;;;;3.80;3.03;;;7.60;99.90;;;;;;5072487;28;20512;-78
2023/03/29 04:43:22;;;;;;;4.00;3.00;;;7.50;99.90;;;;;;5072448;28;20173;-78
2023/03/29 04:45:48;;;;;;;3.00;2.40;;;7.70;99.90;;;;;;5072808;28;20541;-78
2023/03/29 04:48:15;;;;;;;3.43;2.50;;;7.70;99.90;;;;;;5071175;28;20486;-78
2023/03/29 04:50:44;;;;;;;2.97;2.67;;;7.80;99.90;;;;;;5071671;28;20458;-79
2023/03/29 04:53:10;;;;;;;6.80;3.47;;;7.70;99.90;;;;;;5047386;28;20461;-76
2023/03/29 04:55:36;;;;;;;4.07;3.17;;;7.80;99.90;;;;;;5050414;28;20440;-79
2023/03/29 04:58:01;;;;;;;3.67;3.07;;;7.70;99.90;;;;;;5052349;28;20178;-79
2023/03/29 05:00:27;;;;;;;3.73;2.90;;;7.70;99.90;;;;;;5052055;28;20613;-78
2023/03/29 05:02:53;;;;;;;4.47;2.77;;;7.80;99.90;;;;;;5051459;28;20201;-78
2023/03/29 05:05:19;;;;;;;3.20;2.77;;;7.70;99.90;;;;;;5052299;28;20202;-78
2023/03/29 05:07:45;;;;;;;5.70;2.80;;;7.70;99.90;;;;;;5050868;28;20497;-78
2023/03/29 05:10:11;;;;;;;4.47;2.90;;;7.70;99.90;;;;;;5050788;28;20960;-78
2023/03/29 05:12:37;;;;;;;4.07;3.67;;;7.80;99.90;;;;;;5052043;28;20221;-77
2023/03/29 05:15:04;;;;;;;3.13;2.83;;;7.60;99.90;;;;;;5051941;28;20293;-78
2023/03/29 05:17:30;;;;;;;5.80;3.00;;;7.70;99.90;;;;;;5051819;28;20417;-78
2023/03/29 05:19:56;;;;;;;6.73;3.53;;;7.70;99.90;;;;;;5051789;28;20416;-78
2023/03/29 05:22:22;;;;;;;4.07;3.27;;;7.70;99.90;;;;;;5050393;28;20940;-78
2023/03/29 05:24:49;;;;;;;4.20;3.00;;;7.70;99.90;;;;;;5050348;28;20519;-78
2023/03/29 05:27:15;;;;;;;5.37;4.13;;;7.60;99.90;;;;;;5051629;28;20416;-78
2023/03/29 05:29:43;;;;;;;6.13;3.30;;;7.80;99.90;;;;;;5051734;28;20929;-78
2023/03/29 05:32:09;;;;;;;4.07;3.63;;;7.80;99.90;;;;;;5050651;28;20408;-77
2023/03/29 05:34:36;;;;;;;5.40;3.70;;;7.70;99.90;;;;;;5051091;28;20535;-77
2023/03/29 05:37:01;;;;;;;3.70;3.30;;;7.70;99.90;;;;;;5050434;28;20408;-78
2023/03/29 05:39:27;;;;;;;4.80;3.67;;;7.60;99.90;;;;;;5050193;28;20939;-78
2023/03/29 05:41:54;;;;;;;6.30;3.97;;;7.70;99.90;;;;;;5051731;28;20177;-78
2023/03/29 05:44:20;;;;;;;9.10;3.97;;;7.70;99.90;;;;;;5050490;28;20447;-79
2023/03/29 05:46:45;;;;;;;6.60;4.77;;;7.90;99.90;;;;;;5049790;28;20880;-78
2023/03/29 05:49:11;;;;;;;6.27;4.60;;;8.00;99.90;;;;;;5047248;28;20448;-78
2023/03/29 05:51:37;;;;;;;7.80;4.83;;;7.70;99.90;;;;;;5051277;28;20182;-78
2023/03/29 05:54:03;;;;;;;8.30;4.80;;;7.70;99.90;;;;;;5051315;28;20189;-79
2023/03/29 05:56:28;;;;;;;4.97;4.47;;;7.50;99.90;;;;;;5033640;28;20182;-78
2023/03/29 05:58:57;;;;;;;8.63;5.00;;;7.70;99.90;;;;;;5051510;28;20605;-77
2023/03/29 06:01:23;;;;;;;6.10;5.10;;;7.70;99.90;;;;;;5052116;28;20166;-78
2023/03/29 06:03:50;;;;;;;5.03;4.50;;;7.80;99.90;;;;;;5042001;28;20437;-77
2023/03/29 06:06:16;;;;;;;6.13;5.00;;;7.90;99.90;;;;;;5050462;28;20894;-77
2023/03/29 06:08:42;;;;;;;5.47;4.60;;;7.90;99.90;;;;;;5055032;28;20410;-78
2023/03/29 06:11:10;;;;;;;6.27;5.10;;;7.80;99.90;;;;;;5051949;28;20277;-78
2023/03/29 06:13:37;;;;;;;6.77;4.70;;;7.80;99.90;;;;;;5051349;28;20475;-78
2023/03/29 06:16:04;;;;;;;7.20;5.20;;;7.90;99.90;;;;;;5049886;28;20440;-78
2023/03/29 06:18:31;;;;;;;7.43;5.17;;;7.70;99.90;;;;;;5049625;28;20420;-78
2023/03/29 06:20:57;;;;;;;9.87;5.10;;;7.70;99.90;;;;;;5032144;28;20430;-78
2023/03/29 06:23:23;;;;;;;7.70;5.40;;;7.80;99.90;;;;;;5062017;28;20413;-78
2023/03/29 06:25:51;;;;;;;7.93;4.83;;;8.00;99.90;;;;;;5049277;28;20555;-78
2023/03/29 06:28:18;;;;;;;7.83;5.37;;;7.80;99.90;;;;;;5050331;28;20312;-77
2023/03/29 06:30:44;;;;;;;6.63;5.17;;;7.90;99.90;;;;;;5048748;28;20487;-78
2023/03/29 06:33:11;;;;;;;6.53;5.57;;;7.80;99.90;;;;;;5049202;28;20416;-78
2023/03/29 06:35:42;;;;;;;10.30;5.20;;;7.90;99.90;;;;;;5049404;28;20435;-79
2023/03/29 06:38:09;;;;;;;6.00;5.00;;;8.00;99.90;;;;;;5050590;28;20415;-78
2023/03/29 06:40:36;;;;;;;9.10;5.17;;;7.90;99.90;;;;;;5047776;28;20909;-78
2023/03/29 06:43:03;;;;;;;5.97;4.73;;;8.10;99.90;;;;;;5048881;28;20921;-78
2023/03/29 06:45:32;;;;;;;6.00;4.20;;;7.90;99.90;;;;;;5049386;28;20428;-78
2023/03/29 06:47:58;;;;;;;10.07;5.20;;;7.90;99.90;;;;;;5049069;28;20416;-78
2023/03/29 06:50:24;;;;;;;7.80;4.80;;;8.00;99.90;;;;;;5050374;28;20535;-77
2023/03/29 06:52:51;;;;;;;6.10;5.00;;;8.00;99.90;;;;;;5050612;28;20221;-78
2023/03/29 06:55:17;;;;;;;5.57;4.17;;;8.00;99.90;;;;;;5048996;28;20454;-78
2023/03/29 06:57:43;;;;;;;7.97;5.23;;;8.00;99.90;;;;;;5050657;28;20408;-78
2023/03/29 07:00:28;;;;;;;4.90;4.43;;;8.00;99.90;;;;;;5046768;28;20417;-78
2023/03/29 07:02:59;;;;;;;6.63;4.63;;;7.90;99.90;;;;;;5030369;28;20433;-79
2023/03/29 07:05:26;;;;;;;7.73;5.50;;;8.00;99.90;;;;;;5050460;28;20432;-78
2023/03/29 07:07:55;;;;;;;4.77;4.27;;;8.10;99.90;;;;;;5048019;28;20405;-79
2023/03/29 07:10:42;;;;;;;5.20;4.63;;;8.00;99.90;;;;;;5048707;28;20506;-78
2023/03/29 07:13:12;;;;;;;5.30;4.47;;;7.90;99.90;;;;;;5049956;28;20534;-77
2023/03/29 07:15:38;;;;;;;9.47;5.10;;;8.00;99.90;;;;;;5050122;28;20505;-78
2023/03/29 07:18:04;;;;;;;5.10;3.93;;;8.20;99.90;;;;;;5045002;28;20412;-78
2023/03/29 07:20:31;;;;;;;5.03;4.30;;;8.30;99.90;;;;;;5042614;28;20451;-78
2023/03/29 07:22:56;;;;;;;7.77;4.70;;;8.30;99.90;;;;;;5029878;28;20748;-78
2023/03/29 07:25:24;;;;;;;5.53;4.10;;;8.20;99.90;;;;;;5049785;28;20443;-78
2023/03/29 07:27:51;;;;;;;5.10;3.97;;;8.30;99.90;;;;;;5035846;28;20183;-78
2023/03/29 07:30:19;;;;;;;5.93;3.73;;;8.40;99.90;;;;;;5029789;28;20453;-78
2023/03/29 07:32:45;;;;;;;5.87;4.00;;;8.30;99.90;;;;;;5029844;28;20417;-78
2023/03/29 07:35:13;;;;;;;7.23;4.10;;;8.30;99.90;;;;;;5029571;28;20475;-79
2023/03/29 07:37:41;;;;;;;5.10;4.13;;;8.40;99.90;;;;;;5029334;28;20419;-78
2023/03/29 07:40:17;;;;;;;4.63;3.70;;;8.20;99.90;;;;;;5028412;28;20423;-78
2023/03/29 07:42:47;;;;;;;5.57;3.87;;;8.40;99.90;;;;;;5029673;28;20422;-78
2023/03/29 07:45:15;;;;;;;4.10;3.60;;;8.30;99.90;;;;;;5029511;28;21049;-78
2023/03/29 07:47:42;;;;;;;9.77;4.43;;;8.40;99.90;;;;;;5029329;28;20424;-78
2023/03/29 07:50:09;;;;;;;5.37;4.33;;;8.40;99.90;;;;;;5029364;28;20817;-78
2023/03/29 07:52:37;;;;;;;6.60;3.97;;;8.50;99.90;;;;;;5029656;28;20413;-78
2023/03/29 07:55:04;;;;;;;5.77;3.87;;;8.50;99.90;;;;;;5011628;28;20440;-78
2023/03/29 07:57:30;;;;;;;5.20;3.57;;;8.40;99.90;;;;;;5027810;28;20416;-78
2023/03/29 07:59:56;;;;;;;6.17;4.00;;;8.40;99.90;;;;;;5028083;28;20514;-78
2023/03/29 08:02:22;;;;;;;5.97;4.33;;;8.40;99.90;;;;;;5029633;28;20593;-78
2023/03/29 08:04:48;;;;;;;6.50;3.93;;;8.40;99.90;;;;;;5044604;28;20548;-78
2023/03/29 08:07:17;;;;;;;4.37;3.70;;;8.50;99.90;;;;;;5029163;28;20925;-78
2023/03/29 08:09:43;;;;;;;5.33;4.03;;;8.60;99.90;;;;;;5029236;28;20236;-78
2023/03/29 08:12:09;;;;;;;4.40;4.00;;;8.60;99.90;;;;;;5029399;28;20433;-78
2023/03/29 08:14:35;;;;;;;6.10;3.70;;;8.70;99.90;;;;;;5029162;28;20502;-78
2023/03/29 08:17:01;;;;;;;5.00;4.00;;;8.60;99.90;;;;;;5027859;28;20178;-78
2023/03/29 08:19:27;;;;;;;4.23;3.10;;;8.70;99.90;;;;;;5029275;28;20924;-78
2023/03/29 08:21:53;;;;;;;4.63;3.40;;;8.70;99.90;;;;;;5029363;28;20758;-78
2023/03/29 08:24:19;;;;;;;6.00;3.90;;;8.80;99.90;;;;;;5029095;28;20433;-78
2023/03/29 08:26:44;;;;;;;4.80;4.17;;;8.80;99.90;;;;;;5044367;28;20193;-78
2023/03/29 08:29:10;;;;;;;5.20;3.60;;;8.90;99.90;;;;;;5029251;28;20747;-78
2023/03/29 08:31:36;;;;;;;5.00;3.40;;;8.90;99.90;;;;;;5029055;28;20232;-78
2023/03/29 08:34:02;;;;;;;5.27;3.90;;;9.10;99.90;;;;;;5028999;28;20545;-78
2023/03/29 08:36:28;;;;;;;5.57;3.57;;;9.00;99.90;;;;;;5028060;28;20413;-78
2023/03/29 08:38:54;;;;;;;5.77;4.23;;;9.10;99.90;;;;;;5030594;28;20413;-78
2023/03/29 08:41:40;;;;;;;4.30;3.90;;;9.00;99.90;;;;;;5067675;28;20217;-78
2023/03/29 08:44:06;;;;;;;6.03;3.40;;;9.10;99.90;;;;;;5068664;28;20670;-78
2023/03/29 08:46:47;;;;;;;5.50;3.63;;;9.30;99.90;;;;;;5069072;28;20418;-79
2023/03/29 08:49:13;;;;;;;5.10;3.50;;;9.10;99.90;;;;;;5069111;28;20483;-79
2023/03/29 08:51:46;;;;;;;4.20;3.80;;;9.20;99.90;;;;;;5068916;28;20467;-80
2023/03/29 08:54:23;;;;;;;5.10;3.37;;;9.20;99.90;;;;;;5067454;28;20879;-78
2023/03/29 08:56:51;;;;;;;6.20;3.67;;;9.10;99.90;;;;;;5071116;28;20757;-78
2023/03/29 08:59:21;;;;;;;4.50;3.30;;;9.00;99.90;;;;;;5072492;28;20942;-78
2023/03/29 09:01:51;;;;;;;6.90;3.80;;;9.10;99.90;;;;;;5072555;28;20526;-78
2023/03/29 09:04:22;;;;;;;5.00;3.23;;;9.10;99.90;;;;;;5070837;28;20467;-78
2023/03/29 09:06:48;;;;;;;4.80;3.30;;;9.20;99.90;;;;;;5072108;28;20497;-78
2023/03/29 09:09:18;;;;;;;9.20;4.27;;;9.40;99.90;;;;;;5071156;28;20451;-79
2023/03/29 09:12:08;;;;;;;6.97;3.63;;;9.30;99.90;;;;;;5072048;28;20419;-78
2023/03/29 09:14:46;;;;;;;5.93;3.20;;;9.40;99.90;;;;;;5070819;28;20465;-78
2023/03/29 09:17:26;;;;;;;6.27;4.00;;;9.40;99.90;;;;;;5071735;28;20495;-78
2023/03/29 09:20:05;;;;;;;6.47;3.83;;;9.50;99.90;;;;;;5071938;28;20418;-78
2023/03/29 09:22:47;;;;;;;5.57;3.27;;;9.50;99.90;;;;;;5070935;28;20508;-78
2023/03/29 09:25:20;;;;;;;5.97;3.60;;;9.50;99.90;;;;;;5071777;28;20428;-78
2023/03/29 09:28:00;;;;;;;6.23;3.30;;;9.50;99.90;;;;;;5071709;28;20883;-78
2023/03/29 09:30:59;;;;;;;4.90;4.40;;;9.80;99.90;;;;;;5070527;28;20458;-78
2023/03/29 09:33:33;;;;;;;7.90;3.80;;;9.80;99.90;;;;;;5070335;28;20439;-79
2023/03/29 09:36:01;;;;;;;4.93;3.70;;;9.70;99.90;;;;;;5071953;28;20408;-78
2023/03/29 09:38:29;;;;;;;4.07;3.60;;;9.90;99.90;;;;;;5071369;28;20506;-78
2023/03/29 09:41:03;;;;;;;8.17;4.17;;;9.70;99.90;;;;;;5070283;28;20416;-78
2023/03/29 09:43:33;;;;;;;4.70;3.60;;;9.90;99.90;;;;;;5070312;28;20408;-78
2023/03/29 09:46:03;;;;;;;4.50;3.73;;;9.80;99.90;;;;;;5071666;28;20415;-78
2023/03/29 09:48:36;;;;;;;5.33;3.60;;;9.90;99.90;;;;;;5071162;28;20408;-78
2023/03/29 09:51:06;;;;;;;5.77;4.20;;;9.90;99.90;;;;;;5067544;28;20447;-78
2023/03/29 09:53:32;;;;;;;5.90;3.60;;;10.00;99.90;;;;;;5050021;28;20404;-78
2023/03/29 09:56:00;;;;;;;8.17;4.20;;;10.00;99.90;;;;;;5051584;28;20415;-78
2023/03/29 09:58:29;;;;;;;4.07;3.23;;;9.90;99.90;;;;;;5049945;28;20424;-79
2023/03/29 10:01:01;;;;;;;5.30;3.60;;;10.10;99.90;;;;;;5051200;28;20511;-78
2023/03/29 10:03:29;;;;;;;4.23;3.60;;;10.30;99.90;;;;;;5051026;28;20443;-77
2023/03/29 10:05:58;;;;;;;4.73;4.10;;;10.20;99.90;;;;;;5050127;28;20412;-78
2023/03/29 10:08:26;;;;;;;5.47;3.97;;;10.30;99.90;;;;;;5049923;28;20466;-78
2023/03/29 10:10:53;;;;;;;8.17;4.03;;;10.10;99.90;;;;;;5050860;28;20542;-78
2023/03/29 10:13:34;;;;;;;6.40;3.53;;;10.30;99.90;;;;;;5049462;28;20939;-78
2023/03/29 10:16:01;;;;;;;5.53;3.57;;;10.30;99.90;;;;;;5049907;28;20540;-78
2023/03/29 10:18:30;;;;;;;6.00;4.07;;;10.30;99.90;;;;;;5049568;28;20448;-78
2023/03/29 10:21:02;;;;;;;4.23;3.70;;;10.50;99.90;;;;;;5032989;28;20416;-78
2023/03/29 10:23:33;;;;;;;7.00;3.60;;;10.50;99.90;;;;;;5050557;28;20400;-78
2023/03/29 10:26:03;;;;;;;4.10;3.57;;;10.50;99.90;;;;;;5051021;28;20408;-78
2023/03/29 10:28:29;;;;;;;4.40;3.40;;;10.70;99.90;;;;;;5032925;28;21142;-78
2023/03/29 10:30:58;;;;;;;3.77;3.40;;;10.70;99.90;;;;;;5050573;28;20456;-77
2023/03/29 10:33:29;;;;;;;4.73;3.67;;;10.70;99.90;;;;;;5049175;28;20409;-78
2023/03/29 10:35:56;;;;;;;4.20;3.03;;;10.80;99.90;;;;;;5050816;28;20412;-77
2023/03/29 10:38:26;;;;;;;4.50;4.00;;;10.80;99.90;;;;;;5049521;28;20409;-78
2023/03/29 10:40:54;;;;;;;5.07;3.43;;;10.80;99.90;;;;;;5049800;28;20404;-78
2023/03/29 10:43:24;;;;;;;4.67;3.70;;;10.90;99.90;;;;;;5048966;28;21082;-77
2023/03/29 10:45:53;;;;;;;7.60;3.67;;;10.90;99.90;;;;;;5050700;28;20417;-78
2023/03/29 10:48:26;;;;;;;7.00;3.60;;;10.90;99.90;;;;;;5032642;28;20803;-78
2023/03/29 10:50:52;;;;;;;5.30;3.10;;;10.90;99.90;;;;;;5049251;28;20448;-78
2023/03/29 10:53:25;;;;;;;4.20;3.40;;;11.00;99.90;;;;;;5050651;28;20404;-78
2023/03/29 10:56:21;;;;;;;6.00;3.70;;;11.00;99.90;;;;;;5050719;28;20673;-78
2023/03/29 10:59:18;;;;;;;6.33;3.87;;;11.10;99.90;;;;;;5049883;28;20403;-79
2023/03/29 11:02:15;;;;;;;4.27;3.43;;;11.10;99.90;;;;;;5049050;28;20932;-78
2023/03/29 11:04:44;;;;;;;4.43;3.50;;;11.20;99.90;;;;;;5050008;28;20531;-78
2023/03/29 11:07:33;;;;;;;3.37;3.07;;;11.30;99.90;;;;;;5048753;28;20493;-77
2023/03/29 11:10:33;;;;;;;5.47;3.57;;;11.30;99.90;;;;;;5049882;28;20456;-77
2023/03/29 11:13:23;;;;;;;3.87;3.43;;;11.40;99.90;;;;;;5049706;28;20514;-77
2023/03/29 11:16:11;;;;;;;8.23;3.93;;;11.50;99.90;;;;;;5050107;28;20411;-78
2023/03/29 11:18:40;;;;;;;4.10;3.70;;;11.60;99.90;;;;;;5049269;28;20419;-78
2023/03/29 11:21:30;;;;;;;6.40;3.70;;;11.60;99.90;;;;;;5048495;28;20412;-78
2023/03/29 11:24:16;;;;;;;4.23;3.77;;;11.70;99.90;;;;;;5048206;28;20440;-78
2023/03/29 11:27:08;;;;;;;4.20;3.20;;;11.80;99.90;;;;;;5049889;28;20419;-78
2023/03/29 11:29:38;;;;;;;8.00;3.40;;;11.90;99.90;;;;;;5048300;28;20479;-79
2023/03/29 11:32:10;;;;;;;5.07;3.23;;;12.00;99.90;;;;;;5049716;28;20404;-77
2023/03/29 11:34:54;;;;;;;4.87;3.97;;;12.10;99.90;;;;;;5049253;28;21005;-77
2023/03/29 11:37:24;;;;;;;6.13;3.40;;;12.20;99.90;;;;;;5049062;28;20426;-78
2023/03/29 11:40:12;;;;;;;5.70;4.10;;;12.20;99.90;;;;;;5048638;28;20417;-77
2023/03/29 11:42:42;;;;;;;5.20;4.70;;;12.30;99.90;;;;;;5048092;28;21120;-78
2023/03/29 11:45:19;;;;;;;6.90;3.30;;;12.40;99.90;;;;;;5049430;28;20447;-78
2023/03/29 11:47:46;;;;;;;6.50;3.03;;;12.50;99.90;;;;;;5047897;28;20882;-78
2023/03/29 11:50:34;;;;;;;8.70;5.13;;;12.50;99.90;;;;;;5049337;28;20551;-78
2023/03/29 11:53:07;;;;;;;4.07;3.50;;;12.70;99.90;;;;;;5049199;28;20423;-78
2023/03/29 11:55:36;;;;;;;6.17;3.83;;;12.70;99.90;;;;;;5049514;28;20466;-78
2023/03/29 11:58:26;;;;;;;4.07;3.67;;;12.70;99.90;;;;;;5049198;28;20405;-78
2023/03/29 12:01:00;;;;;;;5.37;3.93;;;12.80;99.90;;;;;;5048087;28;20426;-79
2023/03/29 12:03:50;;;;;;;8.43;3.33;;;12.80;99.90;;;;;;5049045;28;20435;-78
2023/03/29 12:06:21;;;;;;;4.73;3.60;;;12.80;99.90;;;;;;5049546;28;20447;-78
2023/03/29 12:08:53;;;;;;;7.47;4.20;;;12.90;99.90;;;;;;5047772;28;20473;-78
2023/03/29 12:11:44;;;;;;;4.47;3.90;;;12.90;99.90;;;;;;5047864;28;21091;-78
2023/03/29 12:14:19;;;;;;;5.20;4.30;;;13.00;99.90;;;;;;5048853;28;20960;-78
2023/03/29 12:16:50;;;;;;;6.33;3.13;;;13.00;99.90;;;;;;5049066;28;20407;-79
2023/03/29 12:19:29;;;;;;;5.97;4.37;;;13.00;99.90;;;;;;5049196;28;20495;-78
2023/03/29 12:21:56;;;;;;;5.23;3.73;;;13.10;99.90;;;;;;5049414;28;20404;-78
2023/03/29 12:24:27;;;;;;;4.77;4.27;;;13.10;99.90;;;;;;5048878;28;20505;-77
2023/03/29 12:27:01;;;;;;;4.70;4.00;;;13.00;99.90;;;;;;5047844;28;20447;-78
2023/03/29 12:29:52;;;;;;;8.47;3.57;;;13.00;99.90;;;;;;5047478;28;20459;-78
2023/03/29 12:32:36;;;;;;;6.10;3.80;;;13.10;99.90;;;;;;5052467;28;20412;-77
2023/03/29 12:35:24;;;;;;;7.13;3.97;;;13.10;99.90;;;;;;5052634;28;20469;-78
2023/03/29 12:38:13;;;;;;;4.50;3.73;;;13.10;99.90;;;;;;5052691;28;20408;-78
2023/03/29 12:40:42;;;;;;;6.73;3.70;;;13.10;99.90;;;;;;5052841;28;20419;-78
2023/03/29 12:43:25;;;;;;;4.77;3.60;;;13.10;99.90;;;;;;5052681;28;20420;-78
2023/03/29 12:45:55;;;;;;;4.30;3.67;;;13.10;99.90;;;;;;5051699;28;20412;-78
2023/03/29 12:48:27;;;;;;;6.70;3.83;;;13.10;99.90;;;;;;5052368;28;20762;-78
2023/03/29 12:51:01;;;;;;;6.87;4.67;;;13.10;99.90;;;;;;5052489;28;20454;-78
2023/03/29 12:53:51;;;;;;;4.27;3.43;;;13.10;99.90;;;;;;5052388;28;20478;-78
2023/03/29 12:56:20;;;;;;;6.20;3.77;;;13.00;99.90;;;;;;5045418;28;20535;-78
2023/03/29 12:58:52;;;;;;;5.70;3.40;;;13.00;99.90;;;;;;5052304;28;20469;-77
2023/03/29 13:01:25;;;;;;;6.43;3.57;;;13.00;99.90;;;;;;5051155;28;20466;-78
2023/03/29 13:03:50;;;;;;;5.90;3.53;;;13.00;99.90;;;;;;5052062;28;20474;-78
2023/03/29 13:06:32;;;;;;;6.43;4.43;;;13.00;99.90;;;;;;5052481;28;20846;-78
2023/03/29 13:09:17;;;;;;;5.70;3.90;;;13.00;99.90;;;;;;5051993;28;20182;-78
2023/03/29 13:11:50;;;;;;;6.60;3.53;;;13.00;99.90;;;;;;5052033;28;20821;-78
2023/03/29 13:14:19;;;;;;;4.60;3.90;;;12.90;99.90;;;;;;5052018;28;20436;-78